Time;durP1;ratioP1;P1;durP2;ratioP2;P2;SDS_P1;SDS_P2;PMS_P1;PMS_P2;Temp;Humidity;BMP_temperature;BMP_pressure;BME280_temperature;BME280_humidity;BME280_pressure;Samples;Min_cycle;Max_cycle;Signal;HPM_P1;HPM_P2
2021/07/20 00:00:08;;;;;;;11.93;6.60;;;13.30;99.90;;;;;;4991722;28;20449;-82
2021/07/20 00:02:41;;;;;;;11.65;6.75;;;13.30;99.90;;;;;;4993396;28;20089;-82
2021/07/20 00:05:11;;;;;;;15.07;7.47;;;13.30;99.90;;;;;;4992099;28;20046;-83
2021/07/20 00:07:39;;;;;;;12.55;7.35;;;13.40;99.90;;;;;;4992105;28;20104;-83
2021/07/20 00:10:12;;;;;;;16.02;7.40;;;13.40;99.90;;;;;;4993051;28;20471;-83
2021/07/20 00:12:40;;;;;;;12.35;7.47;;;13.40;99.90;;;;;;4991808;28;20129;-83
2021/07/20 00:15:10;;;;;;;10.45;6.95;;;13.40;99.90;;;;;;4991714;28;20081;-83
2021/07/20 00:17:42;;;;;;;12.32;7.90;;;13.30;99.90;;;;;;4992014;28;20046;-83
2021/07/20 00:20:12;;;;;;;16.17;8.00;;;13.20;99.90;;;;;;4991876;28;20057;-82
2021/07/20 00:22:39;;;;;;;13.15;6.88;;;13.20;99.90;;;;;;4991811;28;20056;-82
2021/07/20 00:25:08;;;;;;;11.25;6.90;;;13.10;99.90;;;;;;4991443;28;20052;-83
2021/07/20 00:27:35;;;;;;;11.15;7.43;;;13.00;99.90;;;;;;4993089;28;20082;-83
2021/07/20 00:30:04;;;;;;;11.50;7.25;;;13.00;99.90;;;;;;4992807;28;20125;-83
2021/07/20 00:32:31;;;;;;;8.13;6.78;;;13.10;99.90;;;;;;4991946;28;20434;-82
2021/07/20 00:34:58;;;;;;;11.45;7.32;;;13.10;99.90;;;;;;4992808;28;20050;-83
2021/07/20 00:37:24;;;;;;;7.95;6.80;;;13.10;99.90;;;;;;4994756;28;20054;-83
2021/07/20 00:39:51;;;;;;;13.18;6.90;;;13.20;99.90;;;;;;4994358;28;20051;-83
2021/07/20 00:42:18;;;;;;;7.95;6.15;;;13.20;99.90;;;;;;4993278;28;20555;-83
2021/07/20 00:44:45;;;;;;;10.45;6.82;;;13.30;99.90;;;;;;4992943;28;20082;-83
2021/07/20 00:47:11;;;;;;;7.82;6.25;;;13.40;99.90;;;;;;4991435;28;20046;-83
2021/07/20 00:49:39;;;;;;;11.40;6.47;;;13.50;99.90;;;;;;4995286;28;20057;-83
2021/07/20 00:52:06;;;;;;;10.15;6.40;;;13.50;99.90;;;;;;4996255;28;20051;-83
2021/07/20 00:54:33;;;;;;;10.05;6.78;;;13.50;99.90;;;;;;4995026;28;20054;-83
2021/07/20 00:57:01;;;;;;;10.65;6.75;;;13.60;99.90;;;;;;4996423;28;20054;-83
2021/07/20 00:59:28;;;;;;;11.02;6.38;;;13.60;99.90;;;;;;4995307;28;20129;-83
2021/07/20 01:01:55;;;;;;;11.13;6.43;;;13.70;99.90;;;;;;4996219;28;20137;-83
2021/07/20 01:04:22;;;;;;;10.40;6.30;;;13.70;99.90;;;;;;4996158;28;20054;-83
2021/07/20 01:06:50;;;;;;;7.75;6.18;;;13.70;99.90;;;;;;4996032;28;20046;-83
2021/07/20 01:09:18;;;;;;;13.20;6.72;;;13.70;99.90;;;;;;4994977;28;20050;-83
2021/07/20 01:11:45;;;;;;;10.32;6.57;;;13.80;99.90;;;;;;4995772;28;20074;-83
2021/07/20 01:14:12;;;;;;;11.95;7.32;;;13.70;99.90;;;;;;4995724;28;20054;-83
2021/07/20 01:16:40;;;;;;;13.55;6.38;;;13.70;99.90;;;;;;4994885;28;20074;-83
2021/07/20 01:19:07;;;;;;;7.35;5.68;;;13.80;99.90;;;;;;4996180;28;20054;-82
2021/07/20 01:21:37;;;;;;;13.25;6.93;;;13.80;99.90;;;;;;4995991;28;20050;-83
2021/07/20 01:24:06;;;;;;;10.52;6.95;;;13.80;99.90;;;;;;4994550;28;20412;-83
2021/07/20 01:26:33;;;;;;;8.73;6.18;;;13.80;99.90;;;;;;4995859;28;20046;-83
2021/07/20 01:29:03;;;;;;;11.23;6.18;;;13.80;99.90;;;;;;4995611;28;20525;-83
2021/07/20 01:31:34;;;;;;;10.23;6.07;;;13.80;99.90;;;;;;4994646;28;20090;-83
2021/07/20 01:34:01;;;;;;;7.25;6.38;;;13.80;99.90;;;;;;4994289;28;20054;-83
2021/07/20 01:36:30;;;;;;;9.23;6.57;;;13.80;99.90;;;;;;4995650;28;20054;-83
2021/07/20 01:38:59;;;;;;;8.00;6.45;;;13.80;99.90;;;;;;4995724;28;20411;-82
2021/07/20 01:41:26;;;;;;;10.73;6.82;;;13.90;99.90;;;;;;4994579;28;20042;-83
2021/07/20 01:44:01;;;;;;;10.85;5.97;;;13.90;99.90;;;;;;4995414;28;20415;-83
2021/07/20 01:46:31;;;;;;;9.95;6.90;;;13.80;99.90;;;;;;4993840;28;20065;-83
2021/07/20 01:49:00;;;;;;;12.70;7.00;;;13.90;99.90;;;;;;4995357;28;20415;-82
2021/07/20 01:51:27;;;;;;;10.25;7.15;;;13.90;99.90;;;;;;4994209;28;20061;-82
2021/07/20 01:53:56;;;;;;;13.90;7.30;;;13.80;99.90;;;;;;4993947;28;20053;-82
2021/07/20 01:56:23;;;;;;;11.85;6.93;;;13.70;99.90;;;;;;4995590;28;20088;-83
2021/07/20 01:58:50;;;;;;;12.73;6.80;;;13.70;99.90;;;;;;4997668;28;20059;-83
2021/07/20 02:01:23;;;;;;;7.82;5.90;;;13.70;99.90;;;;;;4993782;28;20088;-83
2021/07/20 02:09:11;;;;;;;8.43;6.35;;;13.80;99.90;;;;;;4995402;28;20050;-83
2021/07/20 02:11:39;;;;;;;9.13;6.63;;;13.70;99.90;;;;;;4995110;28;20095;-83
2021/07/20 02:14:10;;;;;;;9.10;6.68;;;13.80;99.90;;;;;;4993647;28;20414;-83
2021/07/20 02:16:44;;;;;;;14.38;7.43;;;13.70;99.90;;;;;;4993667;28;20054;-83
2021/07/20 02:19:18;;;;;;;;;;;13.80;99.90;;;;;;4995400;28;20047;-83
2021/07/20 02:21:50;;;;;;;9.07;6.43;;;13.80;99.90;;;;;;4993566;28;19932;-83
2021/07/20 02:24:18;;;;;;;11.38;6.53;;;13.80;99.90;;;;;;4993665;28;20510;-83
2021/07/20 02:26:47;;;;;;;10.68;5.90;;;13.80;99.90;;;;;;4994723;28;20056;-82
2021/07/20 02:29:16;;;;;;;7.53;6.35;;;13.90;99.90;;;;;;4993496;28;20080;-82
2021/07/20 02:31:45;;;;;;;10.38;6.82;;;13.80;99.90;;;;;;4993437;28;20434;-83
2021/07/20 02:34:15;;;;;;;12.35;7.00;;;13.90;99.90;;;;;;4993240;28;20430;-82
2021/07/20 02:36:42;;;;;;;8.40;6.40;;;13.90;99.90;;;;;;4994457;28;20054;-83
2021/07/20 02:39:11;;;;;;;10.80;7.10;;;13.90;99.90;;;;;;4994474;28;20388;-83
2021/07/20 02:41:39;;;;;;;8.85;6.93;;;14.00;99.90;;;;;;4994504;28;20133;-83
2021/07/20 02:44:07;;;;;;;9.68;6.82;;;14.00;99.90;;;;;;4993259;28;20048;-83
2021/07/20 02:46:36;;;;;;;11.10;6.57;;;14.00;99.90;;;;;;4994291;28;20100;-82
2021/07/20 02:49:04;;;;;;;11.10;6.95;;;14.00;99.90;;;;;;4993091;28;20046;-83
2021/07/20 02:51:33;;;;;;;10.38;6.60;;;14.00;99.90;;;;;;4994194;28;20050;-83
2021/07/20 02:54:00;;;;;;;10.23;6.80;;;14.00;99.90;;;;;;4994027;28;20060;-83
2021/07/20 02:56:29;;;;;;;10.35;7.32;;;13.90;99.90;;;;;;4994106;28;20056;-83
2021/07/20 02:59:01;;;;;;;8.27;6.78;;;13.90;99.90;;;;;;4993139;28;20511;-83
2021/07/20 03:01:31;;;;;;;8.35;6.50;;;13.80;99.90;;;;;;4992848;28;20149;-83
2021/07/20 03:04:00;;;;;;;10.32;6.43;;;13.80;99.90;;;;;;4994056;28;20057;-82
2021/07/20 03:06:29;;;;;;;9.77;6.95;;;13.90;99.90;;;;;;4992721;28;20042;-82
2021/07/20 03:08:59;;;;;;;10.38;6.95;;;13.90;99.90;;;;;;4992908;28;20054;-82
2021/07/20 03:11:31;;;;;;;8.88;6.25;;;14.00;99.90;;;;;;4993535;28;20055;-83
2021/07/20 03:14:04;;;;;;;12.25;6.70;;;14.00;99.90;;;;;;4992576;28;20059;-82
2021/07/20 03:16:32;;;;;;;13.48;6.45;;;14.00;99.90;;;;;;4996629;28;20491;-82
2021/07/20 03:19:00;;;;;;;13.30;6.22;;;14.00;99.90;;;;;;4995006;28;20046;-83
2021/07/20 03:21:27;;;;;;;11.98;6.95;;;14.00;99.90;;;;;;4992582;28;20056;-83
2021/07/20 03:23:55;;;;;;;10.07;6.70;;;14.00;99.90;;;;;;4992473;28;20080;-82
2021/07/20 03:26:23;;;;;;;13.00;6.97;;;14.00;99.90;;;;;;4992133;28;20069;-83
2021/07/20 03:28:54;;;;;;;10.55;6.78;;;14.00;99.90;;;;;;4993700;28;20082;-83
2021/07/20 03:31:22;;;;;;;7.50;6.70;;;14.00;99.90;;;;;;4993614;28;20484;-82
2021/07/20 03:33:50;;;;;;;13.38;6.80;;;14.00;99.90;;;;;;4992371;28;20050;-83
2021/07/20 03:36:17;;;;;;;11.18;7.28;;;14.00;99.90;;;;;;4993213;28;20384;-83
2021/07/20 03:38:45;;;;;;;10.65;6.25;;;14.00;99.90;;;;;;4992036;28;20058;-82
2021/07/20 03:41:12;;;;;;;12.07;6.78;;;14.10;99.90;;;;;;4993292;28;20046;-83
2021/07/20 03:43:40;;;;;;;9.82;6.45;;;14.10;99.90;;;;;;4992327;28;20048;-82
2021/07/20 03:46:07;;;;;;;11.05;6.28;;;14.10;99.90;;;;;;4992059;28;20129;-83
2021/07/20 03:48:35;;;;;;;9.10;6.18;;;14.10;99.90;;;;;;4993588;28;20046;-83
2021/07/20 03:51:02;;;;;;;7.82;6.25;;;14.10;99.90;;;;;;4993322;28;20133;-83
2021/07/20 03:53:32;;;;;;;10.13;6.72;;;14.10;99.90;;;;;;4992262;28;20054;-83
2021/07/20 03:56:01;;;;;;;14.70;6.55;;;14.10;99.90;;;;;;4992406;28;20133;-83
2021/07/20 03:58:28;;;;;;;11.00;6.63;;;14.10;99.90;;;;;;4992678;28;20050;-83
2021/07/20 04:00:59;;;;;;;10.65;6.32;;;14.10;99.90;;;;;;4992558;28;20101;-83
2021/07/20 04:03:28;;;;;;;10.27;6.30;;;14.10;99.90;;;;;;4992697;28;20104;-83
2021/07/20 04:06:00;;;;;;;9.07;6.60;;;14.10;99.90;;;;;;4992211;28;20418;-83
2021/07/20 04:08:27;;;;;;;15.73;7.28;;;14.20;99.90;;;;;;4993605;28;20137;-83
2021/07/20 04:10:55;;;;;;;8.60;6.40;;;14.10;99.90;;;;;;4992462;28;20089;-83
2021/07/20 04:13:22;;;;;;;8.50;6.47;;;14.10;99.90;;;;;;4993538;28;20616;-82
2021/07/20 04:15:54;;;;;;;8.32;6.63;;;14.20;99.90;;;;;;4993257;28;20071;-83
2021/07/20 04:18:21;;;;;;;12.70;7.00;;;14.10;99.90;;;;;;4992318;28;20061;-83
2021/07/20 04:20:48;;;;;;;7.60;6.80;;;14.10;99.90;;;;;;4992250;28;20505;-83
2021/07/20 04:23:19;;;;;;;10.07;6.85;;;14.10;99.90;;;;;;4995308;28;20050;-83
2021/07/20 04:25:47;;;;;;;12.40;7.75;;;14.10;99.90;;;;;;4997345;28;20082;-83
2021/07/20 04:28:15;;;;;;;8.63;6.90;;;14.10;99.90;;;;;;4996213;28;20056;-83
2021/07/20 04:30:43;;;;;;;11.65;7.07;;;14.10;99.90;;;;;;4995728;28;20399;-83
2021/07/20 04:33:13;;;;;;;10.63;7.35;;;14.10;99.90;;;;;;4996755;28;20050;-82
2021/07/20 04:35:41;;;;;;;9.48;6.85;;;14.20;99.90;;;;;;4999139;28;20101;-82
2021/07/20 04:38:11;;;;;;;9.55;6.57;;;14.10;99.90;;;;;;4997551;28;20058;-82
2021/07/20 04:40:40;;;;;;;8.63;7.00;;;14.20;99.90;;;;;;4995569;28;20452;-83
2021/07/20 04:43:07;;;;;;;9.93;6.93;;;14.20;99.90;;;;;;4995495;28;20137;-83
2021/07/20 04:45:35;;;;;;;12.70;6.90;;;14.20;99.90;;;;;;4995189;28;20146;-82
2021/07/20 04:48:05;;;;;;;10.85;6.88;;;14.20;99.90;;;;;;4996427;28;20062;-83
2021/07/20 04:50:32;;;;;;;9.52;6.55;;;14.20;99.90;;;;;;4995445;28;20049;-83
2021/07/20 04:53:02;;;;;;;8.35;6.85;;;14.20;99.90;;;;;;4996644;28;20060;-83
2021/07/20 04:55:34;;;;;;;10.15;6.28;;;14.30;99.90;;;;;;4995153;28;20050;-83
2021/07/20 04:58:02;;;;;;;9.35;6.38;;;14.40;99.90;;;;;;4996331;28;20050;-83
2021/07/20 05:00:29;;;;;;;10.60;6.40;;;14.30;99.90;;;;;;4996308;28;20049;-83
2021/07/20 05:03:02;;;;;;;8.70;6.25;;;14.40;99.90;;;;;;4996183;28;20120;-83
2021/07/20 05:05:32;;;;;;;11.57;6.88;;;14.40;99.90;;;;;;4995161;28;20077;-83
2021/07/20 05:08:01;;;;;;;7.78;6.97;;;14.60;99.90;;;;;;4995841;28;20153;-83
2021/07/20 05:10:28;;;;;;;10.05;6.80;;;14.70;99.90;;;;;;4994984;28;20161;-83
2021/07/20 05:12:56;;;;;;;16.35;7.15;;;14.50;99.90;;;;;;4995985;28;20124;-83
2021/07/20 05:15:23;;;;;;;10.93;7.03;;;14.60;99.90;;;;;;4995747;28;20137;-83
2021/07/20 05:17:49;;;;;;;11.15;6.55;;;14.70;99.90;;;;;;4996135;28;20485;-83
2021/07/20 05:20:20;;;;;;;12.95;7.22;;;14.70;99.90;;;;;;4994711;28;20061;-83
2021/07/20 05:22:48;;;;;;;9.00;7.20;;;14.70;99.90;;;;;;4995160;28;20072;-82
2021/07/20 05:25:16;;;;;;;9.55;6.40;;;14.80;99.90;;;;;;4994433;28;20085;-83
2021/07/20 05:27:46;;;;;;;9.02;6.45;;;14.80;99.90;;;;;;4994610;28;20046;-83
2021/07/20 05:30:13;;;;;;;9.13;5.75;;;14.90;99.90;;;;;;4995751;28;20057;-83
2021/07/20 05:32:43;;;;;;;10.05;6.55;;;14.90;99.90;;;;;;4994599;28;20042;-83
2021/07/20 05:35:15;;;;;;;10.68;6.35;;;15.00;99.90;;;;;;4995319;28;20065;-83
2021/07/20 05:37:43;;;;;;;9.15;6.00;;;15.00;99.90;;;;;;4994364;28;20073;-83
2021/07/20 05:40:16;;;;;;;11.88;5.93;;;15.00;99.90;;;;;;4995565;28;20052;-82
2021/07/20 05:42:43;;;;;;;8.50;5.78;;;15.10;99.90;;;;;;4994501;28;20054;-82
2021/07/20 05:45:11;;;;;;;8.93;6.00;;;15.20;99.90;;;;;;4994313;28;20489;-82
2021/07/20 05:47:41;;;;;;;8.57;6.25;;;15.30;99.90;;;;;;4993710;28;20056;-83
2021/07/20 05:50:09;;;;;;;11.02;6.55;;;15.50;99.90;;;;;;4990618;28;20102;-83
2021/07/20 05:52:39;;;;;;;8.68;5.70;;;15.60;99.90;;;;;;4974896;28;20051;-82
2021/07/20 05:55:08;;;;;;;12.30;6.35;;;15.80;99.90;;;;;;4980490;28;20088;-83
2021/07/20 05:57:38;;;;;;;12.43;6.45;;;16.00;99.90;;;;;;4993423;28;20055;-82
2021/07/20 06:00:09;;;;;;;10.43;6.53;;;16.10;99.90;;;;;;4993664;28;20060;-83
2021/07/20 06:02:39;;;;;;;9.65;5.72;;;16.30;99.90;;;;;;4994203;28;20047;-83
2021/07/20 06:05:13;;;;;;;8.68;6.05;;;16.60;99.90;;;;;;4994351;28;20046;-83
2021/07/20 06:07:40;;;;;;;7.07;5.93;;;16.80;99.90;;;;;;4995586;28;20082;-83
2021/07/20 06:10:08;;;;;;;10.13;5.68;;;17.00;99.90;;;;;;4992906;28;20490;-83
2021/07/20 06:12:40;;;;;;;5.93;5.00;;;17.30;99.90;;;;;;4992133;28;20053;-83
2021/07/20 06:15:08;;;;;;;11.80;5.50;;;17.60;99.90;;;;;;4993043;28;20148;-82
2021/07/20 06:17:35;;;;;;;10.38;4.78;;;17.80;99.90;;;;;;4995223;28;20054;-82
2021/07/20 06:20:03;;;;;;;9.73;5.70;;;18.10;99.90;;;;;;4994101;28;20389;-83
2021/07/20 06:22:32;;;;;;;10.25;5.25;;;18.40;99.90;;;;;;4994107;28;20049;-83
2021/07/20 06:25:02;;;;;;;14.88;5.60;;;19.20;99.90;;;;;;4993803;28;20388;-83
2021/07/20 06:27:30;;;;;;;7.65;4.97;;;19.50;99.90;;;;;;4993423;28;20169;-83
2021/07/20 06:29:59;;;;;;;11.35;4.82;;;19.90;99.90;;;;;;4992566;28;20058;-82
2021/07/20 06:32:30;;;;;;;7.75;5.15;;;20.30;99.90;;;;;;4993090;28;20046;-83
2021/07/20 06:34:57;;;;;;;7.10;4.97;;;20.90;99.90;;;;;;4990977;28;20048;-83
2021/07/20 06:37:27;;;;;;;11.98;5.00;;;21.90;99.90;;;;;;4993015;28;20503;-83
2021/07/20 06:39:54;;;;;;;6.78;5.18;;;22.70;99.90;;;;;;4992911;28;20039;-83
2021/07/20 06:42:23;;;;;;;5.68;4.63;;;22.80;99.90;;;;;;4994240;28;20483;-83
2021/07/20 06:44:50;;;;;;;7.25;4.93;;;22.50;99.90;;;;;;4992619;28;20474;-83
2021/07/20 06:47:18;;;;;;;12.80;6.00;;;22.70;99.90;;;;;;4991876;28;20048;-82
2021/07/20 06:49:47;;;;;;;14.43;6.38;;;22.90;99.90;;;;;;4993133;28;20057;-84
2021/07/20 06:52:15;;;;;;;11.35;6.70;;;22.50;99.90;;;;;;4994042;28;20053;-83
2021/07/20 06:54:45;;;;;;;9.95;6.05;;;22.40;99.90;;;;;;4992830;28;20050;-83
2021/07/20 06:57:16;;;;;;;10.77;6.13;;;22.50;99.90;;;;;;4993922;28;20064;-82
2021/07/20 06:59:45;;;;;;;6.35;5.32;;;23.20;99.90;;;;;;4993934;28;20138;-83
2021/07/20 07:02:19;;;;;;;9.80;5.95;;;24.40;99.90;;;;;;4992765;28;20082;-84
2021/07/20 07:04:56;;;;;;;8.10;5.10;;;24.00;99.90;;;;;;4992651;28;20161;-83
2021/07/20 07:07:24;;;;;;;8.52;5.97;;;23.90;99.90;;;;;;4992629;28;20050;-83
2021/07/20 07:09:52;;;;;;;11.23;5.95;;;24.20;99.90;;;;;;4993647;28;20089;-84
2021/07/20 07:12:20;;;;;;;13.05;6.28;;;23.40;99.90;;;;;;4994160;28;20133;-83
2021/07/20 07:14:47;;;;;;;8.30;6.18;;;24.00;99.90;;;;;;4991201;28;20110;-83
2021/07/20 07:17:14;;;;;;;9.20;5.47;;;24.00;99.90;;;;;;4992278;28;20050;-83
2021/07/20 07:19:45;;;;;;;7.00;5.72;;;25.00;99.20;;;;;;4992211;28;20050;-83
2021/07/20 07:22:13;;;;;;;8.82;5.32;;;25.50;97.90;;;;;;4993675;28;20157;-83
2021/07/20 07:24:43;;;;;;;10.40;4.90;;;26.50;93.30;;;;;;4992591;28;20129;-83
2021/07/20 07:27:12;;;;;;;7.38;5.00;;;26.30;92.50;;;;;;4992289;28;20096;-83
2021/07/20 07:29:41;;;;;;;7.78;5.45;;;25.90;91.00;;;;;;4993446;28;20494;-84
2021/07/20 07:32:08;;;;;;;7.68;5.75;;;24.40;94.00;;;;;;4991579;28;20076;-85
2021/07/20 07:34:36;;;;;;;7.78;5.75;;;23.60;98.30;;;;;;4985808;28;20050;-84
2021/07/20 07:37:05;;;;;;;8.43;6.18;;;23.80;99.30;;;;;;4989142;28;20464;-83
2021/07/20 07:39:33;;;;;;;7.80;5.60;;;24.20;99.60;;;;;;4991976;28;20050;-82
2021/07/20 07:42:00;;;;;;;10.52;5.82;;;24.60;97.50;;;;;;4991779;28;20569;-83
2021/07/20 07:44:28;;;;;;;10.73;6.05;;;25.50;95.30;;;;;;4993505;28;20136;-82
2021/07/20 07:46:58;;;;;;;16.83;6.40;;;25.90;91.70;;;;;;4991884;28;20046;-84
2021/07/20 07:49:27;;;;;;;10.93;5.82;;;25.30;92.30;;;;;;4992410;28;20494;-84
2021/07/20 07:51:54;;;;;;;8.32;6.10;;;25.60;92.60;;;;;;4991883;28;20051;-84
2021/07/20 07:54:21;;;;;;;11.93;5.95;;;25.80;93.80;;;;;;4991974;28;20086;-83
2021/07/20 07:56:48;;;;;;;7.03;5.32;;;26.20;90.90;;;;;;4991744;28;20465;-84
2021/07/20 07:59:19;;;;;;;13.30;5.93;;;27.50;85.90;;;;;;4991830;28;20273;-86
2021/07/20 08:01:49;;;;;;;10.98;6.57;;;26.80;82.40;;;;;;4993408;28;20084;-85
2021/07/20 08:04:27;;;;;;;8.32;6.38;;;25.90;83.80;;;;;;4992300;28;20046;-84
2021/07/20 08:06:56;;;;;;;8.15;5.78;;;25.90;88.20;;;;;;4992377;28;20055;-84
2021/07/20 08:09:26;;;;;;;8.55;5.68;;;27.30;84.30;;;;;;4992061;28;20406;-83
2021/07/20 08:11:56;;;;;;;10.45;6.05;;;29.50;74.80;;;;;;4992584;28;20042;-81
2021/07/20 08:14:23;;;;;;;9.85;6.15;;;30.40;69.60;;;;;;4992527;28;20062;-84
2021/07/20 08:16:57;;;;;;;11.13;6.43;;;29.40;65.90;;;;;;4991229;28;20046;-84
2021/07/20 08:19:27;;;;;;;10.15;5.90;;;28.30;69.60;;;;;;4991680;28;20050;-83
2021/07/20 08:21:59;;;;;;;8.70;6.25;;;28.10;71.70;;;;;;4991442;28;20502;-83
2021/07/20 08:24:29;;;;;;;9.68;5.90;;;27.40;71.20;;;;;;4991806;28;20116;-84
2021/07/20 08:27:03;;;;;;;10.45;6.32;;;27.50;71.30;;;;;;4991949;28;20054;-84
2021/07/20 08:29:34;;;;;;;11.60;5.90;;;27.20;72.20;;;;;;4991425;28;20058;-84
2021/07/20 08:32:08;;;;;;;12.43;6.30;;;27.10;71.10;;;;;;4993533;28;20081;-84
2021/07/20 08:34:41;;;;;;;8.23;5.60;;;26.50;73.00;;;;;;4991959;28;20074;-84
2021/07/20 08:37:32;;;;;;;7.38;5.85;;;27.10;73.90;;;;;;4991741;28;20050;-83
2021/07/20 08:40:08;;;;;;;15.88;5.65;;;28.10;71.20;;;;;;4992273;28;20467;-83
2021/07/20 08:42:55;;;;;;;16.75;6.40;;;28.60;69.60;;;;;;4992813;28;20076;-86
2021/07/20 08:45:35;;;;;;;13.52;6.28;;;29.70;67.90;;;;;;4992347;28;20078;-83
2021/07/20 08:48:19;;;;;;;9.52;5.88;;;28.90;66.70;;;;;;4991208;28;20082;-84
2021/07/20 08:51:04;;;;;;;9.85;5.88;;;28.10;67.30;;;;;;4992883;28;20145;-84
2021/07/20 08:53:53;;;;;;;12.00;6.68;;;28.10;66.70;;;;;;4991251;28;20144;-85
2021/07/20 08:56:24;;;;;;;10.18;6.25;;;27.20;70.70;;;;;;4992772;28;20072;-84
2021/07/20 08:58:59;;;;;;;7.93;6.70;;;27.20;72.30;;;;;;4991910;28;20149;-83
2021/07/20 09:01:32;;;;;;;8.15;6.25;;;27.40;69.70;;;;;;4992885;28;20050;-83
2021/07/20 09:04:03;;;;;;;;;;;28.10;68.50;;;;;;4992866;28;20054;-83
2021/07/20 09:06:42;;;;;;;6.47;5.82;;;28.00;64.40;;;;;;4991497;28;19926;-83
2021/07/20 09:09:25;;;;;;;9.98;6.07;;;29.70;64.30;;;;;;4993371;28;20053;-83
2021/07/20 09:11:56;;;;;;;6.10;5.50;;;32.10;58.60;;;;;;4995227;28;20050;-83
2021/07/20 09:14:36;;;;;;;7.80;5.80;;;33.80;53.90;;;;;;4995148;28;20137;-83
2021/07/20 09:17:27;;;;;;;9.95;6.05;;;33.10;55.20;;;;;;4995872;28;20058;-83
2021/07/20 09:19:59;;;;;;;8.80;6.70;;;31.00;56.70;;;;;;4994897;28;20046;-83
2021/07/20 09:22:44;;;;;;;9.55;6.60;;;30.30;56.90;;;;;;4994944;28;20053;-83
2021/07/20 09:25:16;;;;;;;9.55;6.35;;;29.20;56.80;;;;;;4995930;28;20129;-83
2021/07/20 09:27:52;;;;;;;7.47;5.97;;;29.20;59.90;;;;;;4995927;28;20129;-83
2021/07/20 09:30:24;;;;;;;13.48;6.10;;;29.90;61.00;;;;;;4994725;28;20505;-85
2021/07/20 09:33:05;;;;;;;10.25;6.93;;;32.40;55.30;;;;;;4994722;28;20546;-88
2021/07/20 09:35:52;;;;;;;8.02;6.25;;;33.30;53.50;;;;;;4995384;28;20137;-84
2021/07/20 09:38:40;;;;;;;7.68;6.00;;;34.10;50.40;;;;;;4994723;28;20058;-84
2021/07/20 09:41:24;;;;;;;9.85;6.45;;;34.50;48.30;;;;;;4995287;28;20125;-89
2021/07/20 09:44:17;;;;;;;7.13;6.22;;;33.40;50.70;;;;;;4995387;28;20081;-87
2021/07/20 09:47:03;;;;;;;10.27;6.68;;;32.70;51.70;;;;;;4995615;28;20054;-85
2021/07/20 09:49:56;;;;;;;9.65;5.95;;;33.30;51.60;;;;;;4996867;28;20049;-82
2021/07/20 09:52:39;;;;;;;6.82;5.75;;;36.40;50.60;;;;;;4999697;28;20140;-83
2021/07/20 09:55:14;;;;;;;8.30;6.30;;;36.70;45.90;;;;;;4994502;28;20503;-85
2021/07/20 09:58:26;;;;;;;13.60;7.20;;;35.10;47.10;;;;;;4994833;28;20046;-87
2021/07/20 10:00:59;;;;;;;;;;;33.80;46.30;;;;;;4995027;28;20054;-83
2021/07/20 10:03:39;;;;;;;;;;;32.70;49.70;;;;;;4996096;28;19926;-84
2021/07/20 10:06:28;;;;;;;10.93;6.20;;;31.10;52.00;;;;;;4991646;28;20390;-85
2021/07/20 10:09:05;;;;;;;9.38;6.15;;;30.00;52.40;;;;;;4995187;28;20046;-84
2021/07/20 10:11:51;;;;;;;7.15;6.35;;;29.30;53.60;;;;;;4995508;28;20050;-84
2021/07/20 10:14:27;;;;;;;6.95;6.18;;;28.40;54.70;;;;;;4994236;28;20332;-85
2021/07/20 10:17:31;;;;;;;9.65;6.22;;;27.70;54.30;;;;;;4993727;28;20046;-83
2021/07/20 10:20:20;;;;;;;10.95;6.30;;;27.60;56.70;;;;;;4992901;28;20459;-84
2021/07/20 10:22:54;;;;;;;9.10;6.45;;;27.20;57.10;;;;;;4995236;28;20419;-84
2021/07/20 10:25:32;;;;;;;10.45;6.32;;;26.70;58.80;;;;;;4994879;28;20054;-84
2021/07/20 10:28:24;;;;;;;7.55;6.25;;;26.30;61.00;;;;;;4993218;28;20052;-83
2021/07/20 10:31:05;;;;;;;10.50;6.22;;;26.60;60.50;;;;;;4994792;28;20053;-83
2021/07/20 10:33:47;;;;;;;8.93;6.22;;;27.10;59.30;;;;;;4994581;28;20056;-82
2021/07/20 10:36:28;;;;;;;7.40;5.80;;;28.60;60.20;;;;;;4993452;28;20046;-84
2021/07/20 10:39:03;;;;;;;9.05;6.50;;;30.50;55.70;;;;;;4994474;28;20054;-83
2021/07/20 10:41:52;;;;;;;8.63;5.85;;;31.00;53.50;;;;;;4994816;28;20046;-84
2021/07/20 10:44:29;;;;;;;9.02;6.57;;;30.90;51.00;;;;;;4994797;28;20133;-83
2021/07/20 10:47:01;;;;;;;9.63;6.22;;;31.30;52.00;;;;;;4993558;28;20046;-88
2021/07/20 10:49:37;;;;;;;7.00;6.30;;;31.50;52.10;;;;;;4994327;28;20073;-84
2021/07/20 10:52:25;;;;;;;9.18;6.15;;;29.80;53.20;;;;;;4992812;28;20590;-84
2021/07/20 10:55:10;;;;;;;7.93;5.90;;;29.40;54.60;;;;;;4994324;28;20050;-84
2021/07/20 10:57:58;;;;;;;9.18;6.30;;;28.70;55.30;;;;;;4993192;28;20054;-83
2021/07/20 11:00:37;;;;;;;9.63;6.80;;;27.60;59.10;;;;;;4992883;28;20050;-83
2021/07/20 11:03:21;;;;;;;8.20;6.40;;;27.10;61.10;;;;;;4993114;28;20050;-83
2021/07/20 11:05:51;;;;;;;10.45;6.90;;;26.20;62.90;;;;;;4994211;28;20050;-84
2021/07/20 11:08:19;;;;;;;9.60;7.40;;;25.70;64.10;;;;;;4993414;28;20541;-84
2021/07/20 11:10:51;;;;;;;8.90;6.97;;;25.60;65.10;;;;;;5001928;28;20054;-84
2021/07/20 11:13:40;;;;;;;7.80;6.07;;;26.00;65.30;;;;;;4992671;28;20392;-83
2021/07/20 11:16:09;;;;;;;8.07;6.30;;;27.90;64.10;;;;;;4993944;28;20061;-86
2021/07/20 11:18:41;;;;;;;12.15;6.53;;;29.50;58.90;;;;;;4991561;28;20050;-86
2021/07/20 11:21:11;;;;;;;9.50;6.40;;;29.00;58.40;;;;;;4990196;28;20046;-83
2021/07/20 11:23:41;;;;;;;7.60;6.72;;;28.90;59.70;;;;;;4993472;28;20536;-82
2021/07/20 11:26:09;;;;;;;8.88;6.40;;;28.30;59.30;;;;;;4993535;28;20145;-83
2021/07/20 11:28:43;;;;;;;7.57;6.85;;;28.20;61.20;;;;;;4992669;28;20054;-82
2021/07/20 11:31:13;;;;;;;15.32;6.68;;;28.30;59.10;;;;;;4993163;28;20050;-83
2021/07/20 11:33:54;;;;;;;8.40;6.47;;;28.00;59.90;;;;;;4993454;28;20133;-84
2021/07/20 11:36:24;;;;;;;8.20;6.57;;;27.20;62.10;;;;;;4993477;28;20054;-83
2021/07/20 11:38:55;;;;;;;7.13;6.10;;;27.20;63.60;;;;;;4992401;28;20054;-83
2021/07/20 11:41:33;;;;;;;8.60;6.65;;;27.00;63.80;;;;;;4993421;28;20060;-82
2021/07/20 11:44:33;;;;;;;9.45;6.70;;;26.70;64.50;;;;;;4993356;28;20132;-82
2021/07/20 11:47:04;;;;;;;9.05;6.50;;;26.60;67.40;;;;;;4993492;28;20051;-85
2021/07/20 11:50:04;;;;;;;9.10;6.95;;;27.00;64.80;;;;;;4992371;28;20097;-85
2021/07/20 11:52:46;;;;;;;7.25;6.25;;;27.30;64.20;;;;;;4992227;28;20056;-83
2021/07/20 11:55:39;;;;;;;8.57;6.38;;;27.50;64.40;;;;;;4991677;28;20141;-84
2021/07/20 11:58:40;;;;;;;8.30;6.20;;;27.60;63.70;;;;;;4991326;28;20525;-84
2021/07/20 12:01:41;;;;;;;12.93;7.22;;;28.10;65.40;;;;;;4991841;28;20238;-83
2021/07/20 12:04:22;;;;;;;12.18;6.45;;;27.40;65.40;;;;;;4991961;28;20499;-82
2021/07/20 12:07:08;;;;;;;8.82;6.70;;;26.90;65.40;;;;;;4992520;28;20090;-85
2021/07/20 12:09:59;;;;;;;12.02;6.93;;;26.10;66.90;;;;;;4993287;28;20418;-87
2021/07/20 12:12:54;;;;;;;12.43;6.82;;;25.40;68.30;;;;;;4992876;28;20479;-84
2021/07/20 12:15:28;;;;;;;9.02;6.82;;;24.50;72.40;;;;;;4993446;28;20085;-83
2021/07/20 12:17:58;;;;;;;9.25;6.93;;;24.70;77.40;;;;;;4994871;28;20484;-85
2021/07/20 12:20:25;;;;;;;7.72;5.82;;;24.80;76.30;;;;;;4991910;28;20048;-83
2021/07/20 12:22:54;;;;;;;11.10;6.43;;;25.00;73.50;;;;;;4992113;28;20053;-83
2021/07/20 12:25:23;;;;;;;10.05;6.00;;;25.20;72.50;;;;;;4991842;28;20145;-83
2021/07/20 12:27:53;;;;;;;8.02;6.00;;;25.40;73.10;;;;;;4994007;28;20585;-83
2021/07/20 12:30:21;;;;;;;7.30;5.90;;;25.50;72.40;;;;;;5002856;28;20238;-83
2021/07/20 12:32:49;;;;;;;9.48;6.70;;;25.40;71.40;;;;;;4992887;28;20076;-83
2021/07/20 12:35:20;;;;;;;9.23;6.65;;;25.10;73.30;;;;;;4991787;28;20137;-82
2021/07/20 12:38:00;;;;;;;9.52;6.45;;;24.40;74.40;;;;;;4992786;28;20396;-83
2021/07/20 12:40:27;;;;;;;10.52;6.10;;;24.20;75.60;;;;;;4993010;28;20050;-82
2021/07/20 12:43:05;;;;;;;8.80;6.45;;;24.10;77.10;;;;;;4992093;28;20051;-82
2021/07/20 12:45:32;;;;;;;8.05;6.55;;;24.00;80.10;;;;;;4996922;28;20088;-84
2021/07/20 12:47:58;;;;;;;7.85;6.18;;;24.10;82.70;;;;;;4995185;28;20046;-83
2021/07/20 12:50:25;;;;;;;7.15;6.10;;;24.20;78.10;;;;;;4996882;28;20141;-82
2021/07/20 12:52:52;;;;;;;10.30;7.00;;;24.60;80.80;;;;;;4995420;28;20046;-82
2021/07/20 12:55:21;;;;;;;6.72;6.03;;;25.00;76.40;;;;;;4996941;28;20141;-86
2021/07/20 12:57:58;;;;;;;10.73;6.20;;;24.40;75.60;;;;;;4996319;28;20054;-83
2021/07/20 13:00:34;;;;;;;7.90;5.70;;;23.90;78.50;;;;;;4995841;28;20073;-83
2021/07/20 13:03:07;;;;;;;9.60;6.15;;;23.70;80.10;;;;;;4995638;28;20070;-85
2021/07/20 13:05:37;;;;;;;8.98;6.18;;;23.70;81.00;;;;;;4995457;28;20450;-86
2021/07/20 13:08:04;;;;;;;10.63;6.45;;;23.40;85.90;;;;;;4996248;28;20046;-82
2021/07/20 13:10:32;;;;;;;8.55;5.97;;;23.50;88.90;;;;;;4996326;28;20509;-83
2021/07/20 13:13:01;;;;;;;10.85;6.07;;;23.70;85.30;;;;;;4994957;28;20108;-83